Terminal Aerodrome Forecast
Issued by NWS Pueblo, CO

Home | Current Version | Previous Version | Text Only | Print | Product List | Glossary On
Versions: 1 2 3 4 5 6 7 8 9 10 11 12 13 14 15 16 17 18 19 20
000
FTUS45 KPUB 240520
TAFPUB
TAF
KPUB 240520Z 2406/2506 27015KT P6SM VCSH SCT060 BKN120
      TEMPO 2406/2407 VRB15G25KT -SHRA BKN060
     FM240700 30010KT P6SM VCSH BKN060 BKN120
     FM241200 31008KT P6SM BKN060
     FM241800 09010KT P6SM SCT070 BKN100
     FM242200 06012KT P6SM VCTS BKN070CB=

USA.gov is the U.S. government's official web portal to all federal, state and local government web resources and services.